Airfield :
LOGIN :

Register | Disclaimer

   EN    FR    IT 

 










Legend :    VFR   Marginal VFR   IFR   Intensive IFR   Very Intensive IFR
Visi :
Ceiling :
>= 8 km
>= 3000ft
5 to 8 km
1000 to 3000 ft
1500m to 5 km
500 to 1000 ft
800 to 1500m
200 to 500 ft
< 800m
< 200 ft
Symbols :   Thunderstorms  Fog  Heavy snow  Heavy precipitations  Wind > 20 kt
SIGMETs :     Misc.  Thunderstorms  Icing  Turbulence  Mountain Waves  Volcanic Ashes






- Airport Elevation : 230 ft
- IATA code : VAR


LBWN - Varna

CURRENT METAR :
  • 021300Z 09013KT 9999 FEW043 10/M02 Q1014 NOSIG

EXPIRED METARs :
  • 021230Z 09012KT 060V130 9999 FEW043 10/M02 Q1014 NOSIG
  • 021200Z 08011KT 040V120 9999 FEW033 SCT040 11/M00 Q1014 NOSIG
  • 021130Z 09010KT 050V110 9999 FEW025 BKN034 09/00 Q1015 NOSIG
  • 021100Z 07014KT 9999 SCT033 BKN040 08/01 Q1015 NOSIG
  • 021030Z 08015KT 050V110 9999 SCT033 BKN040 09/01 Q1015 NOSIG
  • 021000Z 07013KT 050V110 9999 SCT033 BKN042 09/M00 Q1015 NOSIG

TAF TAF LBWN
Valid from the 02 at 12:00 until the 03 at 12:00 UTC


021100Z 0212/0312 08016KT 9999 SCT030 BKN040
BECMG 0218/0220 VRB04KT
TEMPO 0302/0306 4000 BR
BECMG 0308/0310 14010KT



MET'MAP, your aeronautical weather chart ! - Copyright ORBIFLY December 2007 - Disclaimer

ORBIFLY MET'MAP TEAM :

Programming & Development : Alexandra Zaïnal
Concept & original design : Baudouin d'Aumeries
Assistance for programming : Marc-Olivier Méhu
Technical & hardware support : Manuel Goepfert

Contact : metmap@orbifly.com




SOURCES & CREDITS :

   NOAA